Aérodrome :
LOGIN :

S'inscrire | Disclaimer

   EN    FR    IT 

 










Légende :    VFR   VFR Marginal   IFR   IFR Intensif   IFR Très Intensif
Visi : 
Plafond : 
>= 8 km
>= 3000ft
5 à 8 km
1000 à 3000 ft
1500m à 5 km
500 à 1000 ft
800 à 1500m
200 à 500 ft
< 800m
< 200 ft
Symboles :   Orages  Brouillard  Fortes neiges  Fortes précipitations  Vent > 20 kt
SIGMETs :   Divers  Orages  Givrage  Turbulence  Onde Orograph.  Cendres Volcan.







- Altitude de l'aérodrome : 13 ft
- Code IATA : SNR
- Voir les cartes d'approche


LFRZ - St-Nazaire

DERNIER METAR :
  • 270330Z AUTO 07010KT CAVOK 23/20 Q1017 NOSIG

METARs EXPIRÉS :
  • 270300Z AUTO 07009KT CAVOK 23/20 Q1016 NOSIG
  • 270230Z AUTO 07009KT CAVOK 24/20 Q1016 NOSIG
  • 270200Z AUTO 07010KT CAVOK 24/19 Q1016 NOSIG
  • 270130Z AUTO 07011KT CAVOK 24/19 Q1016 NOSIG
  • 270100Z AUTO 06008KT CAVOK 24/18 Q1016 NOSIG

TAF TAF LFRZ
Valide du 27 à 00h jusqu'au 28 à 00h UTC


262300Z 2700/2724 06008KT CAVOK
Pas de NOTAMs connus pour ce terrain.
1 SIGMET publié pour la FIR Brest (LFRR) :
 
Orages noyés dans la masse
LFRR SIGMET 1 VALID 270230/270400 LFPW
LFRR BREST FIR/UIR EMBD TS OBS WI N4700 W00800 - N4900 W00800 - N4915 W00615 - N4430 W00600 - N4445 W00700 - N4700 W00800 TOP FL380 MOV N 20KT NC=



MET'MAP, la Météo Aéronautique d'un coup d'oeil ! - Copyright ORBIFLY Décembre 2007 - Disclaimer

ORBIFLY MET'MAP TEAM :

Programmation & Développement : Alexandra Zaïnal
Conception & Développement : Baudouin d'Aumeries
Co-Programmation & Développement : Marc-Olivier Méhu
Soutien technique & logistique : Manuel Goepfert

Contact : metmap@orbifly.com




SOURCES & CREDITS :

   NOAA